Time;durP1;ratioP1;P1;durP2;ratioP2;P2;SDS_P1;SDS_P2;PMS_P1;PMS_P2;Temp;Humidity;BMP_temperature;BMP_pressure;BME280_temperature;BME280_humidity;BME280_pressure;Samples;Min_cycle;Max_cycle;Signal;HPM_P1;HPM_P2
2022/02/20 00:00:49;;;;;;;12.98;2.17;;;7.10;79.80;;;;;;9182462;19;20539;-64
2022/02/20 00:03:55;;;;;;;6.75;1.90;;;7.20;79.90;;;;;;9182578;19;20021;-63
2022/02/20 00:07:00;;;;;;;10.40;1.95;;;7.20;79.90;;;;;;9184427;19;20018;-63
2022/02/20 00:10:06;;;;;;;10.65;1.85;;;7.20;79.90;;;;;;9183065;19;20030;-63
2022/02/20 00:13:11;;;;;;;8.55;1.58;;;7.20;79.80;;;;;;9176792;19;20019;-62
2022/02/20 00:16:19;;;;;;;7.13;1.55;;;7.20;79.80;;;;;;9180174;19;20032;-63
2022/02/20 00:19:24;;;;;;;11.20;2.33;;;7.20;79.80;;;;;;9181798;19;20026;-63
2022/02/20 00:22:29;;;;;;;18.15;1.90;;;7.30;79.90;;;;;;9184032;19;20030;-62
2022/02/20 00:25:36;;;;;;;8.70;1.83;;;7.30;79.80;;;;;;9183687;19;20403;-63
2022/02/20 00:28:41;;;;;;;8.27;1.42;;;7.30;79.80;;;;;;9175305;19;20018;-63
2022/02/20 00:31:49;;;;;;;8.25;1.13;;;7.30;79.80;;;;;;9179871;19;20030;-62
2022/02/20 00:34:54;;;;;;;13.48;1.38;;;7.30;79.90;;;;;;9180841;19;20041;-62
2022/02/20 00:38:00;;;;;;;9.63;2.33;;;7.30;79.80;;;;;;9183572;19;20417;-62
2022/02/20 00:41:05;;;;;;;11.10;1.73;;;7.30;79.70;;;;;;9181644;19;20033;-65
2022/02/20 00:44:10;;;;;;;9.07;1.40;;;7.30;79.60;;;;;;9181018;19;20475;-63
2022/02/20 00:47:18;;;;;;;9.40;1.15;;;7.30;79.60;;;;;;9179074;19;20014;-62
2022/02/20 00:50:23;;;;;;;9.32;2.25;;;7.30;79.50;;;;;;9182915;19;20058;-62
2022/02/20 00:53:29;;;;;;;5.60;1.30;;;7.30;79.50;;;;;;9183696;19;20056;-63
2022/02/20 00:56:34;;;;;;;13.85;1.92;;;7.20;79.40;;;;;;9180311;19;20014;-61
2022/02/20 00:59:39;;;;;;;5.55;1.63;;;7.20;79.50;;;;;;9179738;19;20015;-64
2022/02/20 01:02:47;;;;;;;12.40;1.92;;;7.10;79.40;;;;;;9181678;19;20019;-63
2022/02/20 01:05:53;;;;;;;12.25;2.42;;;7.10;79.50;;;;;;9181532;19;20018;-62
2022/02/20 01:08:58;;;;;;;8.85;1.95;;;7.10;79.50;;;;;;9179706;19;20042;-62
2022/02/20 01:12:03;;;;;;;13.43;2.03;;;7.00;79.40;;;;;;9179508;19;20015;-63
2022/02/20 01:15:10;;;;;;;11.68;1.88;;;7.00;79.40;;;;;;9178669;19;20364;-62
2022/02/20 01:18:17;;;;;;;11.13;2.35;;;6.90;79.40;;;;;;9177828;19;20465;-65
2022/02/20 01:21:22;;;;;;;7.65;1.70;;;6.90;79.40;;;;;;9180815;19;20026;-62
2022/02/20 01:24:27;;;;;;;12.05;1.95;;;6.90;79.50;;;;;;9182799;19;20086;-63
2022/02/20 01:27:32;;;;;;;16.63;3.33;;;6.90;79.60;;;;;;9177206;19;20025;-64
2022/02/20 01:30:37;;;;;;;13.60;2.38;;;6.90;79.60;;;;;;9179184;19;20053;-66
2022/02/20 01:33:45;;;;;;;9.98;2.20;;;6.80;79.60;;;;;;9179096;19;20048;-62
2022/02/20 01:36:51;;;;;;;10.40;2.53;;;6.80;79.60;;;;;;9179519;19;20010;-62
2022/02/20 01:39:58;;;;;;;9.75;2.00;;;6.80;79.60;;;;;;9180234;19;20014;-64
2022/02/20 01:43:04;;;;;;;12.93;2.00;;;6.80;79.70;;;;;;9180886;19;20010;-63
2022/02/20 01:46:09;;;;;;;4.22;2.53;;;6.80;79.80;;;;;;9174940;19;20015;-62
2022/02/20 01:49:18;;;;;;;8.00;2.40;;;6.80;79.70;;;;;;9177999;19;20021;-63
2022/02/20 01:52:27;;;;;;;12.18;2.63;;;6.80;79.90;;;;;;9179772;19;20470;-65
2022/02/20 01:55:37;;;;;;;18.17;2.88;;;6.80;79.90;;;;;;9178866;19;20037;-62
2022/02/20 01:58:53;;;;;;;6.63;2.42;;;6.80;79.90;;;;;;9179794;19;20014;-64
2022/02/20 02:02:22;;;;;;;11.85;2.63;;;6.80;79.90;;;;;;9177318;19;20484;-63
2022/02/20 02:05:37;;;;;;;11.95;2.65;;;6.80;79.90;;;;;;9176250;19;20097;-62
2022/02/20 02:08:43;;;;;;;10.00;3.15;;;6.80;80.00;;;;;;9176554;19;20747;-62
2022/02/20 02:11:55;;;;;;;5.28;2.70;;;6.80;80.00;;;;;;9178570;19;20011;-65
2022/02/20 02:15:13;;;;;;;6.25;2.40;;;6.80;80.00;;;;;;9179426;19;20015;-63
2022/02/20 02:18:18;;;;;;;11.27;2.90;;;6.80;80.00;;;;;;9177005;19;20564;-63
2022/02/20 02:21:36;;;;;;;8.25;2.72;;;6.80;80.00;;;;;;9174311;19;20361;-63
2022/02/20 02:25:12;;;;;;;8.00;3.00;;;6.80;80.10;;;;;;9175451;19;20018;-64
2022/02/20 02:28:34;;;;;;;5.13;2.95;;;6.80;80.00;;;;;;9173161;19;20015;-63
2022/02/20 02:31:44;;;;;;;5.45;2.78;;;6.80;80.00;;;;;;9181097;19;20014;-62
2022/02/20 02:34:50;;;;;;;5.22;2.70;;;6.80;79.90;;;;;;9179280;19;20456;-62
2022/02/20 02:38:00;;;;;;;5.72;2.88;;;6.80;80.00;;;;;;9176683;19;20023;-65
2022/02/20 02:41:10;;;;;;;14.38;2.92;;;6.80;80.00;;;;;;9177629;19;20150;-63
2022/02/20 02:44:17;;;;;;;6.38;2.97;;;6.70;79.90;;;;;;9178529;19;20487;-63
2022/02/20 02:47:22;;;;;;;4.55;2.90;;;6.70;79.80;;;;;;9180258;19;20464;-62
2022/02/20 02:50:27;;;;;;;5.40;3.05;;;6.70;79.70;;;;;;9173877;19;20535;-63
2022/02/20 02:53:37;;;;;;;4.97;2.97;;;6.60;79.60;;;;;;9176204;19;20501;-62
2022/02/20 02:56:45;;;;;;;2.78;2.05;;;6.60;79.50;;;;;;9176009;19;20022;-66
2022/02/20 02:59:51;;;;;;;7.57;1.80;;;6.50;79.50;;;;;;9177366;19;20551;-61
2022/02/20 03:02:57;;;;;;;3.78;2.00;;;6.40;79.40;;;;;;9177822;19;20018;-61
2022/02/20 03:06:02;;;;;;;3.35;2.13;;;6.40;79.50;;;;;;9175586;19;20025;-64
2022/02/20 03:09:09;;;;;;;2.08;1.88;;;6.30;79.50;;;;;;9176748;19;20462;-61
2022/02/20 03:12:18;;;;;;;3.45;2.40;;;6.30;79.60;;;;;;9177304;19;20025;-66
2022/02/20 03:15:25;;;;;;;2.10;1.90;;;6.20;79.50;;;;;;9178862;19;20018;-61
2022/02/20 03:18:31;;;;;;;3.08;2.28;;;6.20;80.30;;;;;;9175686;19;20026;-63
2022/02/20 03:21:37;;;;;;;3.45;2.38;;;6.20;79.70;;;;;;9175329;19;20019;-63
2022/02/20 03:24:42;;;;;;;2.35;2.10;;;6.20;79.80;;;;;;9169374;19;20829;-62
2022/02/20 03:27:49;;;;;;;4.30;2.40;;;6.10;79.70;;;;;;9172672;19;20018;-62
2022/02/20 03:31:02;;;;;;;3.03;2.60;;;6.10;79.70;;;;;;9173702;19;20113;-63
2022/02/20 03:34:07;;;;;;;4.03;2.47;;;6.20;79.80;;;;;;9175976;19;20010;-63
2022/02/20 03:37:13;;;;;;;5.47;2.65;;;6.20;79.80;;;;;;9175233;19;20010;-61
2022/02/20 03:40:19;;;;;;;5.03;2.10;;;6.20;79.80;;;;;;9175214;19;20837;-63
2022/02/20 03:43:27;;;;;;;4.00;2.00;;;6.20;79.90;;;;;;9178064;19;20022;-62
2022/02/20 03:46:38;;;;;;;2.45;2.10;;;6.20;79.90;;;;;;9177185;19;20010;-64
2022/02/20 03:49:43;;;;;;;2.45;1.85;;;6.20;80.00;;;;;;9177038;19;20018;-63
2022/02/20 03:53:09;;;;;;;7.10;1.77;;;6.20;79.90;;;;;;9173662;19;20014;-63
2022/02/20 03:56:15;;;;;;;5.00;1.58;;;6.20;79.90;;;;;;9173372;19;20011;-64
2022/02/20 03:59:28;;;;;;;3.92;1.30;;;6.20;79.90;;;;;;9174000;19;20018;-64
2022/02/20 04:02:34;;;;;;;5.50;1.30;;;6.20;79.80;;;;;;9175598;19;20052;-62
2022/02/20 04:05:39;;;;;;;3.70;1.23;;;6.20;79.90;;;;;;9178557;19;20014;-63
2022/02/20 04:08:47;;;;;;;2.63;1.20;;;6.20;79.80;;;;;;9172800;19;20026;-63
2022/02/20 04:11:52;;;;;;;1.17;0.90;;;6.20;79.80;;;;;;9173172;19;20030;-63
2022/02/20 04:15:15;;;;;;;2.42;0.80;;;6.20;79.90;;;;;;9173289;19;20045;-64
2022/02/20 04:18:24;;;;;;;4.93;1.23;;;6.20;79.80;;;;;;9173831;19;20349;-63
2022/02/20 04:21:55;;;;;;;2.00;0.80;;;6.20;79.90;;;;;;9176462;19;20476;-63
2022/02/20 04:25:02;;;;;;;3.10;0.93;;;6.20;79.80;;;;;;9177207;19;20026;-64
2022/02/20 04:28:07;;;;;;;2.33;0.68;;;6.20;79.80;;;;;;9168754;19;20733;-62
2022/02/20 04:31:18;;;;;;;3.58;0.80;;;6.20;79.80;;;;;;9172794;19;20022;-61
2022/02/20 04:34:28;;;;;;;4.70;0.85;;;6.20;79.90;;;;;;9173990;19;20082;-61
2022/02/20 04:37:33;;;;;;;2.53;0.73;;;6.20;79.80;;;;;;9173265;19;20015;-62
2022/02/20 04:40:38;;;;;;;3.22;0.80;;;6.20;79.80;;;;;;9175325;19;20114;-61
2022/02/20 04:43:51;;;;;;;5.03;1.05;;;6.20;79.80;;;;;;9175685;19;20022;-63
2022/02/20 04:46:59;;;;;;;3.05;1.05;;;6.20;79.80;;;;;;9181610;19;20769;-62
2022/02/20 04:50:09;;;;;;;3.28;1.10;;;6.20;79.80;;;;;;9181529;19;20015;-62
2022/02/20 04:53:19;;;;;;;2.50;1.10;;;6.20;79.90;;;;;;9182289;19;20022;-64
2022/02/20 04:56:26;;;;;;;5.10;0.80;;;6.20;79.80;;;;;;9184453;19;20044;-63
2022/02/20 04:59:31;;;;;;;3.22;0.70;;;6.20;79.80;;;;;;9179908;19;20367;-63
2022/02/20 05:02:39;;;;;;;7.45;1.02;;;6.20;79.80;;;;;;9179960;19;20350;-62
2022/02/20 05:05:44;;;;;;;3.53;1.00;;;6.20;79.90;;;;;;9180924;19;20356;-62
2022/02/20 05:08:49;;;;;;;4.22;1.35;;;6.20;79.80;;;;;;9181438;19;20038;-62
2022/02/20 05:11:59;;;;;;;3.78;1.13;;;6.20;79.80;;;;;;9182968;19;20616;-62
2022/02/20 05:15:04;;;;;;;4.97;1.35;;;6.20;79.80;;;;;;9180476;19;20342;-61
2022/02/20 05:18:15;;;;;;;4.60;1.17;;;6.20;79.80;;;;;;9179567;19;20042;-63
2022/02/20 05:21:21;;;;;;;6.78;1.38;;;6.20;79.90;;;;;;9181016;19;20038;-66
2022/02/20 05:24:28;;;;;;;6.20;1.38;;;6.20;79.90;;;;;;9181786;19;20055;-62
2022/02/20 05:27:33;;;;;;;4.20;1.92;;;6.10;79.80;;;;;;9178266;19;20085;-65
2022/02/20 05:30:38;;;;;;;5.57;1.63;;;6.10;79.90;;;;;;9180439;19;20026;-65
2022/02/20 05:33:58;;;;;;;2.42;1.65;;;6.20;79.90;;;;;;9179858;19;20022;-62
2022/02/20 05:37:03;;;;;;;4.57;2.40;;;6.10;79.90;;;;;;9179760;19;20019;-64
2022/02/20 05:40:18;;;;;;;4.25;1.70;;;6.10;79.90;;;;;;9179106;19;20040;-62
2022/02/20 05:43:47;;;;;;;6.05;1.80;;;6.10;79.90;;;;;;9181827;19;20023;-61
2022/02/20 05:46:54;;;;;;;5.97;2.33;;;6.10;79.90;;;;;;9181672;19;20033;-63
2022/02/20 05:50:05;;;;;;;11.13;2.13;;;6.20;80.00;;;;;;9178586;19;20025;-63
2022/02/20 05:53:10;;;;;;;5.38;1.80;;;6.20;80.00;;;;;;9177818;19;20021;-62
2022/02/20 05:56:17;;;;;;;2.40;1.52;;;6.10;80.00;;;;;;9175824;19;20591;-63
2022/02/20 05:59:31;;;;;;;4.15;1.75;;;6.10;80.00;;;;;;9178827;19;20021;-63
2022/02/20 06:02:37;;;;;;;3.97;1.77;;;6.10;80.00;;;;;;9181600;19;20094;-63
2022/02/20 06:05:45;;;;;;;7.75;1.90;;;6.10;80.00;;;;;;9176875;19;20480;-65
2022/02/20 06:09:16;;;;;;;5.45;2.05;;;6.00;80.00;;;;;;9175374;19;20045;-63
2022/02/20 06:12:24;;;;;;;9.23;1.73;;;6.00;80.00;;;;;;9176692;19;20022;-63
2022/02/20 06:15:47;;;;;;;4.35;1.98;;;6.00;80.00;;;;;;9178927;19;20022;-64
2022/02/20 06:18:57;;;;;;;4.70;1.67;;;6.00;80.10;;;;;;9177826;19;20014;-64
2022/02/20 06:22:17;;;;;;;5.22;1.60;;;6.00;80.10;;;;;;9181201;19;20488;-61
2022/02/20 06:25:26;;;;;;;7.47;2.40;;;6.00;80.20;;;;;;9179858;19;20015;-61
2022/02/20 06:28:40;;;;;;;;;;;6.00;80.20;;;;;;9173984;19;20041;-61
2022/02/20 06:31:46;;;;;;;4.53;1.75;;;6.00;80.20;;;;;;9178310;19;19930;-61
2022/02/20 06:34:51;;;;;;;4.28;2.22;;;6.00;80.10;;;;;;9180509;19;20954;-63
2022/02/20 06:37:59;;;;;;;8.13;2.80;;;6.00;80.20;;;;;;9179138;19;20352;-63
2022/02/20 06:41:04;;;;;;;7.78;2.30;;;6.00;80.30;;;;;;9179295;19;20021;-62
2022/02/20 06:44:14;;;;;;;5.90;2.35;;;6.00;80.30;;;;;;9175602;19;20014;-62
2022/02/20 06:47:25;;;;;;;8.07;2.70;;;6.00;80.30;;;;;;9176228;19;20019;-61
2022/02/20 06:51:08;;;;;;;8.05;2.95;;;6.00;80.30;;;;;;9175739;19;20006;-61
2022/02/20 06:54:29;;;;;;;6.22;2.90;;;5.90;80.40;;;;;;9178390;19;20025;-61
2022/02/20 06:57:44;;;;;;;11.77;3.28;;;5.90;80.40;;;;;;9178204;19;20021;-61
2022/02/20 07:00:49;;;;;;;6.90;3.60;;;5.90;80.40;;;;;;9177474;19;20022;-62
2022/02/20 07:03:54;;;;;;;10.55;3.20;;;5.90;80.40;;;;;;9175139;19;20018;-61
2022/02/20 07:06:59;;;;;;;10.90;3.53;;;5.90;80.50;;;;;;9177536;19;20026;-61
2022/02/20 07:10:09;;;;;;;10.70;3.53;;;6.00;80.60;;;;;;9176463;19;20364;-61
2022/02/20 07:13:14;;;;;;;8.10;4.32;;;5.90;80.60;;;;;;9179820;19;20476;-61
2022/02/20 07:16:18;;;;;;;10.23;4.68;;;6.00;80.70;;;;;;9178986;19;20011;-61
2022/02/20 07:19:24;;;;;;;12.70;4.35;;;5.90;80.70;;;;;;9176653;19;20018;-62
2022/02/20 07:22:28;;;;;;;12.85;4.15;;;6.00;80.80;;;;;;9175647;19;20019;-62
2022/02/20 07:25:36;;;;;;;12.90;4.90;;;5.90;80.80;;;;;;9177722;19;20022;-62
2022/02/20 07:28:41;;;;;;;14.38;4.63;;;5.90;80.90;;;;;;9175369;19;20022;-61
2022/02/20 07:31:47;;;;;;;14.13;5.43;;;5.90;80.90;;;;;;9176449;19;20346;-61
2022/02/20 07:34:52;;;;;;;12.70;4.47;;;5.90;81.00;;;;;;9177219;19;20014;-62
2022/02/20 07:37:57;;;;;;;11.80;3.97;;;6.00;81.10;;;;;;9174334;19;20011;-62
2022/02/20 07:41:04;;;;;;;13.27;4.50;;;6.00;81.20;;;;;;9175534;19;19998;-64
2022/02/20 07:44:09;;;;;;;11.88;4.72;;;6.00;81.30;;;;;;9178254;19;20043;-64
2022/02/20 07:47:15;;;;;;;19.63;4.45;;;6.00;81.40;;;;;;9179472;19;20142;-62
2022/02/20 07:50:20;;;;;;;15.75;4.43;;;6.00;81.40;;;;;;9170185;19;20529;-62
2022/02/20 07:53:26;;;;;;;20.70;5.20;;;6.10;81.60;;;;;;9168775;19;20078;-62
2022/02/20 07:56:33;;;;;;;11.25;4.53;;;6.20;81.70;;;;;;9176262;19;20014;-62
2022/02/20 07:59:38;;;;;;;16.13;5.30;;;6.20;81.70;;;;;;9174852;19;20015;-63
2022/02/20 08:02:45;;;;;;;16.33;4.55;;;6.20;81.70;;;;;;9177020;19;20015;-63
2022/02/20 08:05:50;;;;;;;14.70;4.85;;;6.30;81.90;;;;;;9174180;19;20021;-62
2022/02/20 08:08:55;;;;;;;10.25;4.28;;;6.30;81.90;;;;;;9173559;19;20014;-63
2022/02/20 08:12:03;;;;;;;11.13;4.50;;;6.30;82.00;;;;;;9176208;19;20026;-62
2022/02/20 08:15:09;;;;;;;12.85;4.18;;;6.40;82.10;;;;;;9175496;19;20014;-63
2022/02/20 08:18:14;;;;;;;13.73;4.20;;;6.40;82.10;;;;;;9176345;19;20018;-62
2022/02/20 08:21:19;;;;;;;8.40;3.80;;;6.50;82.20;;;;;;9183345;19;20010;-62
2022/02/20 08:24:24;;;;;;;9.30;3.70;;;6.50;82.30;;;;;;9182678;19;20018;-63
2022/02/20 08:27:35;;;;;;;15.70;4.75;;;6.60;82.40;;;;;;9178040;19;20341;-64
2022/02/20 08:30:42;;;;;;;6.97;3.88;;;6.70;82.70;;;;;;9185428;19;20036;-66
2022/02/20 08:33:47;;;;;;;7.57;3.60;;;6.70;82.50;;;;;;9182746;19;20022;-65
2022/02/20 08:36:53;;;;;;;14.65;3.70;;;6.80;82.70;;;;;;9182570;19;20030;-63
2022/02/20 08:39:58;;;;;;;7.85;2.92;;;6.90;82.70;;;;;;9184048;19;20022;-64
2022/02/20 08:43:06;;;;;;;11.35;3.75;;;7.00;82.80;;;;;;9183971;19;20727;-63
2022/02/20 08:46:16;;;;;;;10.07;3.15;;;7.10;83.00;;;;;;9186678;19;20094;-63
2022/02/20 08:49:21;;;;;;;8.55;3.35;;;7.10;82.90;;;;;;9183980;19;20018;-63
2022/02/20 08:52:26;;;;;;;13.52;3.28;;;7.20;83.00;;;;;;9177756;19;20019;-64
2022/02/20 08:55:31;;;;;;;6.55;2.70;;;7.30;83.20;;;;;;9174949;19;20017;-63
2022/02/20 08:58:39;;;;;;;10.65;3.13;;;7.40;83.30;;;;;;9176053;19;20018;-62
2022/02/20 09:01:44;;;;;;;8.05;2.67;;;7.50;83.30;;;;;;9172204;19;20014;-63
2022/02/20 09:04:49;;;;;;;10.43;2.35;;;7.50;83.30;;;;;;9170558;19;20018;-62
2022/02/20 09:07:54;;;;;;;7.95;2.80;;;7.60;83.30;;;;;;9173740;19;20018;-63
2022/02/20 09:11:00;;;;;;;9.77;2.60;;;7.70;83.40;;;;;;9171614;19;20018;-65
2022/02/20 09:14:08;;;;;;;10.85;2.58;;;7.80;83.50;;;;;;9177877;19;20018;-62
2022/02/20 09:17:13;;;;;;;9.88;2.70;;;7.90;83.60;;;;;;9176238;19;20365;-64
2022/02/20 09:20:18;;;;;;;6.05;1.92;;;8.00;83.60;;;;;;9174186;19;20015;-64
2022/02/20 09:23:23;;;;;;;8.20;2.55;;;8.10;83.70;;;;;;9175011;19;20853;-63
2022/02/20 09:26:28;;;;;;;10.10;2.72;;;8.10;83.70;;;;;;9171603;19;20026;-63
2022/02/20 09:29:36;;;;;;;7.03;3.85;;;8.20;83.80;;;;;;9175423;19;20018;-62
2022/02/20 09:32:43;;;;;;;7.13;2.38;;;8.30;84.00;;;;;;9178566;19;20353;-61
2022/02/20 09:35:48;;;;;;;5.68;2.58;;;8.40;84.00;;;;;;9176883;19;20018;-63
2022/02/20 09:38:54;;;;;;;9.38;2.78;;;8.50;84.10;;;;;;9175403;19;20006;-64
2022/02/20 09:42:00;;;;;;;5.95;2.38;;;8.60;84.20;;;;;;9173739;19;20029;-62
2022/02/20 09:45:09;;;;;;;11.55;2.42;;;8.60;84.20;;;;;;9174798;19;20599;-62
2022/02/20 09:48:15;;;;;;;9.60;2.17;;;8.70;84.30;;;;;;9175560;19;20365;-63
2022/02/20 09:51:20;;;;;;;10.20;2.58;;;8.80;84.30;;;;;;9172790;19;20018;-63
2022/02/20 09:54:26;;;;;;;11.52;3.00;;;8.90;84.40;;;;;;9171424;19;20048;-62
2022/02/20 09:57:31;;;;;;;14.48;3.75;;;9.00;84.40;;;;;;9169911;19;20599;-62
2022/02/20 10:00:39;;;;;;;18.75;3.47;;;9.10;84.40;;;;;;9172447;19;20018;-64
2022/02/20 10:03:47;;;;;;;11.32;3.25;;;9.10;84.50;;;;;;9172819;19;20018;-63
2022/02/20 10:06:52;;;;;;;12.43;3.45;;;9.20;84.50;;;;;;9168864;19;20473;-64
2022/02/20 10:09:58;;;;;;;19.70;4.43;;;9.30;84.60;;;;;;9170263;19;20496;-64
2022/02/20 10:13:05;;;;;;;21.92;4.47;;;9.40;84.60;;;;;;9170656;19;20011;-65
2022/02/20 10:16:27;;;;;;;22.98;4.00;;;9.50;84.70;;;;;;9172071;19;20033;-66
2022/02/20 10:19:38;;;;;;;27.25;5.20;;;9.50;84.90;;;;;;9173092;19;20029;-64
2022/02/20 10:23:06;;;;;;;24.65;4.68;;;9.60;84.70;;;;;;9169309;19;20014;-66
2022/02/20 10:26:43;;;;;;;30.55;4.22;;;9.70;84.70;;;;;;9168957;19;20018;-63
2022/02/20 10:30:18;;;;;;;25.17;5.00;;;9.80;84.80;;;;;;9166986;19;20019;-65
2022/02/20 10:33:27;;;;;;;27.60;4.25;;;9.80;84.60;;;;;;9171690;19;20448;-64
2022/02/20 10:36:56;;;;;;;26.25;4.72;;;9.90;84.70;;;;;;9171236;19;20015;-65
2022/02/20 10:40:01;;;;;;;23.85;5.15;;;10.00;84.90;;;;;;9169216;19;20022;-64
2022/02/20 10:43:09;;;;;;;34.53;4.70;;;10.00;84.70;;;;;;9167966;19;20022;-65
2022/02/20 10:46:16;;;;;;;24.52;3.88;;;10.10;84.80;;;;;;9171871;19;20577;-64
2022/02/20 10:49:29;;;;;;;24.58;5.75;;;10.20;84.80;;;;;;9165229;19;20018;-63
2022/02/20 10:52:34;;;;;;;28.42;4.68;;;10.30;84.90;;;;;;9168047;19;20356;-63
2022/02/20 10:55:42;;;;;;;26.70;4.80;;;10.30;84.70;;;;;;9168693;19;20038;-67
2022/02/20 10:58:49;;;;;;;21.20;4.72;;;10.40;84.70;;;;;;9171989;19;20503;-64
2022/02/20 11:01:54;;;;;;;26.30;4.93;;;10.40;84.70;;;;;;9162444;19;20018;-65
2022/02/20 11:05:03;;;;;;;31.75;4.35;;;10.50;84.70;;;;;;9166359;19;20033;-64
2022/02/20 11:08:09;;;;;;;33.78;5.47;;;10.50;84.70;;;;;;9163698;19;20507;-65
2022/02/20 11:14:32;;;;;;;35.75;5.43;;;10.60;84.60;;;;;;9166195;19;20011;-63
2022/02/20 11:17:38;;;;;;;29.13;4.78;;;10.60;84.50;;;;;;9169686;19;20025;-62
2022/02/20 11:20:48;;;;;;;27.85;5.15;;;10.70;84.50;;;;;;9166209;19;20026;-62
2022/02/20 11:23:56;;;;;;;37.38;6.45;;;10.70;84.60;;;;;;9166567;19;20102;-63
2022/02/20 11:27:04;;;;;;;28.00;4.63;;;10.70;84.50;;;;;;9167012;19;20018;-63
2022/02/20 11:30:11;;;;;;;35.70;4.80;;;10.80;84.50;;;;;;9174803;19;20017;-63
2022/02/20 11:33:17;;;;;;;30.65;5.00;;;10.80;84.50;;;;;;9171368;19;20014;-64
2022/02/20 11:36:27;;;;;;;36.30;5.88;;;10.80;84.40;;;;;;9170775;19;20027;-64
2022/02/20 11:39:32;;;;;;;29.30;4.15;;;10.80;84.40;;;;;;9169814;19;20502;-63
2022/02/20 11:42:39;;;;;;;29.00;5.57;;;10.90;84.50;;;;;;9168823;19;20105;-64
2022/02/20 11:46:04;;;;;;;30.83;5.82;;;10.90;84.50;;;;;;9173674;19;20783;-65
2022/02/20 11:49:26;;;;;;;25.08;4.68;;;10.90;84.50;;;;;;9174481;19;20011;-64
2022/02/20 11:52:52;;;;;;;31.40;5.68;;;11.00;84.50;;;;;;9171067;19;20018;-62
2022/02/20 11:56:06;;;;;;;25.52;4.53;;;11.00;84.50;;;;;;9177327;19;20817;-63
2022/02/20 11:59:18;;;;;;;30.05;4.43;;;11.10;84.50;;;;;;9177276;19;20025;-64
2022/02/20 12:02:23;;;;;;;29.55;4.68;;;11.10;84.50;;;;;;9176253;19;20018;-62
2022/02/20 12:05:28;;;;;;;26.35;4.50;;;11.10;84.40;;;;;;9181580;19;20021;-64
2022/02/20 12:08:38;;;;;;;27.40;5.13;;;11.10;84.40;;;;;;9179614;19;20082;-64
2022/02/20 12:11:45;;;;;;;27.02;4.57;;;11.10;84.40;;;;;;9175170;19;20025;-63
2022/02/20 12:15:30;;;;;;;31.92;5.38;;;11.10;84.50;;;;;;9176614;19;20019;-63
2022/02/20 12:18:35;;;;;;;19.52;3.63;;;11.10;84.50;;;;;;9179496;19;20023;-63
2022/02/20 12:22:06;;;;;;;19.67;3.85;;;11.20;84.40;;;;;;9179646;19;20077;-63
2022/02/20 12:25:18;;;;;;;13.43;2.42;;;11.20;84.50;;;;;;9177772;19;20020;-62
2022/02/20 12:28:33;;;;;;;15.18;3.10;;;11.20;84.30;;;;;;9177073;19;20086;-64
2022/02/20 12:32:06;;;;;;;18.70;3.30;;;11.20;84.50;;;;;;9179320;19;20048;-63
2022/02/20 12:35:21;;;;;;;16.70;4.05;;;11.20;84.60;;;;;;9176988;19;20014;-65
2022/02/20 12:38:26;;;;;;;17.38;2.85;;;11.20;84.50;;;;;;9175853;19;20018;-63
2022/02/20 12:41:32;;;;;;;15.02;2.72;;;11.20;84.40;;;;;;9179512;19;20030;-67
2022/02/20 12:44:40;;;;;;;19.20;3.92;;;11.20;84.50;;;;;;9176080;19;20014;-64
2022/02/20 12:47:53;;;;;;;13.10;3.25;;;11.20;84.50;;;;;;9176635;19;20331;-63
2022/02/20 12:51:00;;;;;;;19.97;2.93;;;11.20;84.50;;;;;;9175218;19;20025;-63
2022/02/20 12:54:05;;;;;;;13.85;2.97;;;11.20;84.50;;;;;;9174303;19;20360;-62
2022/02/20 12:57:11;;;;;;;16.92;3.13;;;11.20;84.50;;;;;;9173387;19;20018;-63
2022/02/20 13:00:18;;;;;;;13.18;2.92;;;11.20;84.60;;;;;;9175061;19;20010;-64
2022/02/20 13:03:27;;;;;;;11.73;3.17;;;11.20;84.60;;;;;;9172312;19;20017;-63
2022/02/20 13:06:38;;;;;;;19.17;4.30;;;11.20;84.60;;;;;;9179768;19;20578;-63
2022/02/20 13:09:43;;;;;;;15.05;3.03;;;11.10;84.60;;;;;;9178944;19;20018;-63
2022/02/20 13:13:12;;;;;;;11.57;2.72;;;11.20;84.70;;;;;;9179113;19;20029;-65
2022/02/20 13:16:23;;;;;;;19.27;3.13;;;11.20;84.80;;;;;;9180649;19;20010;-66
2022/02/20 13:19:39;;;;;;;11.45;2.30;;;11.10;84.70;;;;;;9180658;19;20472;-61
2022/02/20 13:22:44;;;;;;;18.05;2.78;;;11.20;84.80;;;;;;9175062;19;20021;-65
2022/02/20 13:25:51;;;;;;;18.05;2.85;;;11.20;84.70;;;;;;9165199;19;20694;-64
2022/02/20 13:28:58;;;;;;;12.15;2.88;;;11.10;84.70;;;;;;9170867;19;20644;-64
2022/02/20 13:32:03;;;;;;;15.88;2.55;;;11.10;84.80;;;;;;9172781;19;20014;-64
2022/02/20 13:35:11;;;;;;;14.02;3.25;;;11.10;84.80;;;;;;9172641;19;20014;-66
2022/02/20 13:38:18;;;;;;;14.40;2.53;;;11.10;84.80;;;;;;9175098;19;20587;-64
2022/02/20 13:41:24;;;;;;;10.75;2.13;;;11.10;84.90;;;;;;9169981;19;20022;-65
2022/02/20 13:47:50;;;;;;;10.25;2.45;;;11.10;84.90;;;;;;9210906;19;20707;-64
2022/02/20 13:51:13;;;;;;;13.75;2.35;;;11.10;85.00;;;;;;9216373;19;20022;-63
2022/02/20 13:54:19;;;;;;;9.68;2.03;;;11.10;85.20;;;;;;9218179;19;20030;-63
2022/02/20 13:57:28;;;;;;;10.93;2.38;;;11.10;85.00;;;;;;9215680;19;20025;-64
2022/02/20 14:00:34;;;;;;;10.00;2.47;;;11.10;85.10;;;;;;9213675;19;20010;-63
2022/02/20 14:03:43;;;;;;;15.15;2.72;;;11.10;85.10;;;;;;9211010;19;20015;-63
2022/02/20 14:06:49;;;;;;;12.15;1.90;;;11.10;85.10;;;;;;9214698;19;20032;-63
2022/02/20 14:09:55;;;;;;;7.03;1.75;;;11.00;85.10;;;;;;9214982;19;20022;-63
2022/02/20 14:13:01;;;;;;;11.00;2.00;;;11.00;85.10;;;;;;9216841;19;20093;-64
2022/02/20 14:16:08;;;;;;;11.15;1.88;;;11.00;85.20;;;;;;9212659;19;20491;-64
2022/02/20 14:19:18;;;;;;;9.13;2.08;;;11.00;85.20;;;;;;9212064;19;20018;-64
2022/02/20 14:22:25;;;;;;;8.65;1.67;;;11.00;85.30;;;;;;9214870;19;20055;-63
2022/02/20 14:25:32;;;;;;;8.07;2.08;;;11.00;85.30;;;;;;9216830;19;20018;-64
2022/02/20 14:28:39;;;;;;;11.02;2.45;;;11.00;85.30;;;;;;9214170;19;20021;-65
2022/02/20 14:31:44;;;;;;;14.55;2.83;;;11.00;85.30;;;;;;9211591;19;20014;-64
2022/02/20 14:34:55;;;;;;;8.65;2.50;;;11.00;85.30;;;;;;9212971;19;20482;-66
2022/02/20 14:38:02;;;;;;;10.80;2.72;;;11.00;85.30;;;;;;9213635;19;20022;-63
2022/02/20 14:41:08;;;;;;;11.75;2.80;;;11.00;85.30;;;;;;9216985;19;20048;-64
2022/02/20 14:44:13;;;;;;;9.13;3.05;;;11.00;85.30;;;;;;9215379;19;20037;-63
2022/02/20 14:47:19;;;;;;;13.30;2.42;;;11.00;85.30;;;;;;9210438;19;20053;-64
2022/02/20 14:50:28;;;;;;;16.67;3.03;;;11.00;86.00;;;;;;9213051;19;20051;-64
2022/02/20 14:53:33;;;;;;;12.15;3.30;;;11.00;86.10;;;;;;9212879;19;20052;-63
2022/02/20 14:56:40;;;;;;;11.45;2.38;;;11.00;85.50;;;;;;9208226;19;20427;-64
2022/02/20 14:59:45;;;;;;;12.10;2.38;;;11.00;85.50;;;;;;9178760;19;20023;-64
2022/02/20 15:02:50;;;;;;;13.93;3.00;;;11.00;85.60;;;;;;9176273;19;20022;-63
2022/02/20 15:05:57;;;;;;;11.75;2.72;;;11.00;85.50;;;;;;9177104;19;20019;-64
2022/02/20 15:09:02;;;;;;;18.52;3.08;;;10.90;85.60;;;;;;9176691;19;20025;-64
2022/02/20 15:12:08;;;;;;;11.63;2.17;;;10.90;85.60;;;;;;9178458;19;20516;-64
2022/02/20 15:15:13;;;;;;;11.50;2.30;;;10.90;85.60;;;;;;9175554;19;20014;-63
2022/02/20 15:18:18;;;;;;;10.68;2.05;;;10.90;85.60;;;;;;9176486;19;20014;-66
2022/02/20 15:21:26;;;;;;;11.32;2.40;;;10.90;85.60;;;;;;9178481;19;20018;-61
2022/02/20 15:24:31;;;;;;;13.20;2.55;;;10.90;85.70;;;;;;9175731;19;20027;-64
2022/02/20 15:27:36;;;;;;;12.88;2.85;;;10.90;85.70;;;;;;9168822;19;20033;-64
2022/02/20 15:30:42;;;;;;;12.52;1.90;;;10.90;85.70;;;;;;9174795;19;20030;-65
2022/02/20 15:33:47;;;;;;;7.68;2.22;;;10.90;85.80;;;;;;9176916;19;20027;-64
2022/02/20 15:36:55;;;;;;;10.55;2.60;;;10.90;85.80;;;;;;9174931;19;20021;-65
2022/02/20 15:40:00;;;;;;;10.23;2.22;;;10.90;85.80;;;;;;9175530;19;20019;-62
2022/02/20 15:43:05;;;;;;;9.60;2.63;;;10.90;85.80;;;;;;9180253;19;20020;-63
2022/02/20 15:46:11;;;;;;;9.75;2.35;;;10.90;85.80;;;;;;9175443;19;20036;-63
2022/02/20 15:49:16;;;;;;;11.50;2.35;;;10.90;85.90;;;;;;9173823;19;20015;-64
2022/02/20 15:52:23;;;;;;;8.05;1.85;;;10.90;85.90;;;;;;9175781;19;20102;-64
2022/02/20 15:55:29;;;;;;;13.00;2.35;;;10.90;86.00;;;;;;9174799;19;20018;-66
2022/02/20 15:58:34;;;;;;;10.93;2.00;;;10.90;86.00;;;;;;9175871;19;20022;-65
2022/02/20 16:01:39;;;;;;;8.30;1.90;;;10.90;86.00;;;;;;9171633;19;20436;-64
2022/02/20 16:04:44;;;;;;;11.32;1.98;;;10.90;86.00;;;;;;9174900;19;20019;-62
2022/02/20 16:07:52;;;;;;;9.70;2.10;;;10.90;86.10;;;;;;9173212;19;20029;-66
2022/02/20 16:10:57;;;;;;;7.57;1.83;;;10.90;86.10;;;;;;9169692;19;20673;-64
2022/02/20 16:14:02;;;;;;;13.68;2.25;;;10.90;86.20;;;;;;9174559;19;20018;-67
2022/02/20 16:17:07;;;;;;;10.48;1.75;;;10.90;86.20;;;;;;9172686;19;20025;-67
2022/02/20 16:20:13;;;;;;;8.13;1.88;;;10.90;86.20;;;;;;9176359;19;20017;-65
2022/02/20 16:23:21;;;;;;;6.43;2.03;;;10.90;86.30;;;;;;9174964;19;20011;-64
2022/02/20 16:26:26;;;;;;;9.45;2.15;;;10.90;86.20;;;;;;9171255;19;20048;-65
2022/02/20 16:29:31;;;;;;;6.40;1.60;;;10.90;86.20;;;;;;9177939;19;20054;-65